Time;durP1;ratioP1;P1;durP2;ratioP2;P2;SDS_P1;SDS_P2;PMS_P1;PMS_P2;Temp;Humidity;BMP_temperature;BMP_pressure;BME280_temperature;BME280_humidity;BME280_pressure;Samples;Min_cycle;Max_cycle;Signal;HPM_P1;HPM_P2
2022/11/23 00:00:19;;;;;;;14.99;6.46;;;6.50;99.90;;;;;;4975617;28;10001138;-73
2022/11/23 00:02:45;;;;;;;15.90;6.32;;;6.50;99.90;;;;;;4706598;28;10000040;-74
2022/11/23 00:05:10;;;;;;;12.18;6.40;;;6.50;99.90;;;;;;5050501;28;20032;-73
2022/11/23 00:07:36;;;;;;;12.60;5.78;;;6.50;99.90;;;;;;5061276;28;20111;-73
2022/11/23 00:10:01;;;;;;;16.92;6.47;;;6.50;99.90;;;;;;5058794;28;20031;-74
2022/11/23 00:12:27;;;;;;;13.73;5.47;;;6.40;99.90;;;;;;5049536;28;20090;-74
2022/11/23 00:14:52;;;;;;;12.05;5.25;;;6.50;99.90;;;;;;5045582;28;20021;-74
2022/11/23 00:17:18;;;;;;;17.33;4.72;;;6.50;99.90;;;;;;5058949;28;20497;-73
2022/11/23 00:19:44;;;;;;;10.45;4.40;;;6.50;99.90;;;;;;5046193;28;20025;-73
2022/11/23 00:22:09;;;;;;;15.63;6.05;;;6.50;99.90;;;;;;5055895;28;20094;-73
2022/11/23 00:24:35;;;;;;;11.77;4.40;;;6.50;99.90;;;;;;5053765;28;20124;-74
2022/11/23 00:27:00;;;;;;;12.90;4.65;;;6.50;99.90;;;;;;5052483;28;20124;-73
2022/11/23 00:29:26;;;;;;;9.88;4.38;;;6.50;99.90;;;;;;5055307;28;20024;-73
2022/11/23 00:31:52;;;;;;;13.55;4.82;;;6.50;99.90;;;;;;5053264;28;20072;-73
2022/11/23 00:34:17;;;;;;;9.68;4.30;;;6.50;99.90;;;;;;5054600;28;20024;-74
2022/11/23 00:36:43;;;;;;;13.65;4.82;;;6.50;99.90;;;;;;5044216;28;20105;-73
2022/11/23 00:39:09;;;;;;;10.45;4.57;;;6.50;99.90;;;;;;5049109;28;20028;-73
2022/11/23 00:41:35;;;;;;;9.73;4.25;;;6.50;99.90;;;;;;5050313;28;20028;-74
2022/11/23 00:44:00;;;;;;;11.13;4.50;;;6.50;99.90;;;;;;5045241;28;20020;-74
2022/11/23 00:46:27;;;;;;;12.88;4.75;;;6.50;99.90;;;;;;5052480;28;20032;-74
2022/11/23 00:48:54;;;;;;;11.02;4.28;;;6.50;99.90;;;;;;5052996;28;20269;-73
2022/11/23 00:51:28;;;;;;;11.90;4.40;;;6.50;99.90;;;;;;5062555;28;20017;-73
2022/11/23 00:53:54;;;;;;;11.57;4.47;;;6.50;99.90;;;;;;5053908;28;20028;-73
2022/11/23 00:56:20;;;;;;;16.73;4.45;;;6.50;99.90;;;;;;5046603;28;20079;-74
2022/11/23 00:58:54;;;;;;;9.38;4.50;;;6.50;99.90;;;;;;5056098;28;20106;-73
2022/11/23 01:01:22;;;;;;;14.13;4.90;;;6.50;99.90;;;;;;5049669;28;20017;-73
2022/11/23 01:03:54;;;;;;;11.70;4.30;;;6.50;99.90;;;;;;5044891;28;20107;-74
2022/11/23 01:06:22;;;;;;;11.25;4.15;;;6.60;99.90;;;;;;5046796;28;20193;-73
2022/11/23 01:08:53;;;;;;;11.25;4.78;;;6.60;99.90;;;;;;5052723;28;20029;-73
2022/11/23 01:11:22;;;;;;;12.80;5.43;;;6.60;99.90;;;;;;5049403;28;20633;-74
2022/11/23 01:13:48;;;;;;;11.10;5.93;;;6.60;99.90;;;;;;5054360;28;20033;-73
2022/11/23 01:16:35;;;;;;;15.93;5.60;;;6.60;99.90;;;;;;5045598;28;20642;-74
2022/11/23 01:19:09;;;;;;;12.85;4.20;;;6.60;99.90;;;;;;5055099;28;20052;-73
2022/11/23 01:21:36;;;;;;;13.05;4.13;;;6.60;99.90;;;;;;5059212;28;20580;-73
2022/11/23 01:24:13;;;;;;;12.70;4.53;;;6.60;99.90;;;;;;5048656;28;20087;-74
2022/11/23 01:26:40;;;;;;;15.13;4.13;;;6.60;99.90;;;;;;5048885;28;20404;-73
2022/11/23 01:29:06;;;;;;;13.57;4.55;;;6.60;99.90;;;;;;5061458;28;20087;-73
2022/11/23 01:31:32;;;;;;;14.07;4.00;;;6.60;99.90;;;;;;5052859;28;20067;-73
2022/11/23 01:33:59;;;;;;;17.17;4.43;;;6.60;99.90;;;;;;5058388;28;20059;-74
2022/11/23 01:36:31;;;;;;;12.40;4.10;;;6.60;99.90;;;;;;5053004;28;20094;-73
2022/11/23 01:38:58;;;;;;;10.77;3.90;;;6.60;99.90;;;;;;5050971;28;20029;-74
2022/11/23 01:41:27;;;;;;;12.38;4.20;;;6.60;99.90;;;;;;5058793;28;20036;-74
2022/11/23 01:43:53;;;;;;;9.57;3.80;;;6.60;99.90;;;;;;5047463;28;20104;-73
2022/11/23 01:46:19;;;;;;;12.55;3.60;;;6.70;99.90;;;;;;5056437;28;20098;-73
2022/11/23 01:49:00;;;;;;;12.93;4.10;;;6.70;99.90;;;;;;5055556;28;20041;-73
2022/11/23 01:51:39;;;;;;;12.68;4.40;;;6.70;99.90;;;;;;5054793;28;20040;-74
2022/11/23 01:54:13;;;;;;;13.43;4.45;;;6.70;99.90;;;;;;5030680;28;20428;-74
2022/11/23 01:56:48;;;;;;;11.02;4.63;;;6.70;99.90;;;;;;5053430;28;20541;-74
2022/11/23 01:59:17;;;;;;;12.32;4.35;;;6.70;99.90;;;;;;5053411;28;20021;-74
2022/11/23 02:01:43;;;;;;;17.42;4.47;;;6.60;99.90;;;;;;5057488;28;20749;-74
2022/11/23 02:04:15;;;;;;;12.05;4.15;;;6.60;99.90;;;;;;5050597;28;20055;-73
2022/11/23 02:06:43;;;;;;;13.88;3.83;;;6.70;99.90;;;;;;5047150;28;20052;-73
2022/11/23 02:09:10;;;;;;;12.20;4.13;;;6.70;99.90;;;;;;5054518;28;20025;-73
2022/11/23 02:11:35;;;;;;;13.38;3.75;;;6.70;99.90;;;;;;5056449;28;20029;-73
2022/11/23 02:14:01;;;;;;;10.68;3.50;;;6.70;99.90;;;;;;5058497;28;20863;-73
2022/11/23 02:16:28;;;;;;;10.98;3.55;;;6.60;99.90;;;;;;5046695;28;20025;-73
2022/11/23 02:18:54;;;;;;;10.48;3.90;;;6.70;99.90;;;;;;5036475;28;20040;-73
2022/11/23 02:21:20;;;;;;;15.57;4.10;;;6.70;99.90;;;;;;5057949;28;20028;-74
2022/11/23 02:24:01;;;;;;;10.00;3.72;;;6.70;99.90;;;;;;5060157;28;20033;-74
2022/11/23 02:26:32;;;;;;;13.23;3.08;;;6.70;99.90;;;;;;5057407;28;20090;-73
2022/11/23 02:29:11;;;;;;;14.65;3.05;;;6.70;99.90;;;;;;5046941;28;20024;-73
2022/11/23 02:31:37;;;;;;;7.72;2.80;;;6.70;99.90;;;;;;5049126;28;20044;-73
2022/11/23 02:34:03;;;;;;;10.40;3.08;;;6.70;99.90;;;;;;5050446;28;20103;-74
2022/11/23 02:36:47;;;;;;;10.93;2.95;;;6.70;99.90;;;;;;5058549;28;20111;-74
2022/11/23 02:39:19;;;;;;;8.98;3.30;;;6.70;99.90;;;;;;5049784;28;20494;-74
2022/11/23 02:41:47;;;;;;;9.57;2.95;;;6.70;99.90;;;;;;5055476;28;20032;-73
2022/11/23 02:44:38;;;;;;;10.73;3.03;;;6.70;99.90;;;;;;5054266;28;20024;-74
2022/11/23 02:47:05;;;;;;;12.32;3.10;;;6.70;99.90;;;;;;5051506;28;20017;-74
2022/11/23 02:49:31;;;;;;;12.27;3.28;;;6.70;99.90;;;;;;5058015;28;20025;-73
2022/11/23 02:51:56;;;;;;;11.77;3.20;;;6.70;99.90;;;;;;5054012;28;20082;-73
2022/11/23 02:54:22;;;;;;;11.93;2.75;;;6.70;99.90;;;;;;5049478;28;20021;-74
2022/11/23 02:56:48;;;;;;;10.93;2.65;;;6.70;99.90;;;;;;5050790;28;21190;-74
2022/11/23 02:59:13;;;;;;;9.25;2.30;;;6.70;99.90;;;;;;5052005;28;20035;-73
2022/11/23 03:01:39;;;;;;;11.32;2.60;;;6.70;99.90;;;;;;5035244;28;20055;-74
2022/11/23 03:04:05;;;;;;;11.93;2.78;;;6.70;99.90;;;;;;5020829;28;20033;-74
2022/11/23 03:06:31;;;;;;;9.85;2.92;;;6.70;99.90;;;;;;5060406;28;20024;-74
2022/11/23 03:08:57;;;;;;;12.98;2.35;;;6.70;99.90;;;;;;5055237;28;20638;-74
2022/11/23 03:11:22;;;;;;;12.70;2.20;;;6.70;99.90;;;;;;5046910;28;20575;-74
2022/11/23 03:13:48;;;;;;;13.90;2.70;;;6.70;99.90;;;;;;5047105;28;20021;-74
2022/11/23 03:16:15;;;;;;;16.70;2.63;;;6.70;99.90;;;;;;5045859;28;20097;-74
2022/11/23 03:18:41;;;;;;;9.85;2.42;;;6.70;99.90;;;;;;5045506;28;20381;-73
2022/11/23 03:21:07;;;;;;;8.15;2.60;;;6.60;99.90;;;;;;5055055;28;20024;-73
2022/11/23 03:23:34;;;;;;;10.88;2.80;;;6.70;99.90;;;;;;5056496;28;20028;-73
2022/11/23 03:26:00;;;;;;;16.48;3.83;;;6.70;99.90;;;;;;5047349;28;20033;-73
2022/11/23 03:28:26;;;;;;;10.50;2.92;;;6.70;99.90;;;;;;5049721;28;20761;-73
2022/11/23 03:30:52;;;;;;;12.70;2.80;;;6.70;99.90;;;;;;5048738;28;20056;-73
2022/11/23 03:33:18;;;;;;;15.30;3.28;;;6.70;99.90;;;;;;5045602;28;20036;-73
2022/11/23 03:35:44;;;;;;;10.27;2.83;;;6.60;99.90;;;;;;5052178;28;20158;-73
2022/11/23 03:38:10;;;;;;;11.68;3.30;;;6.70;99.90;;;;;;5051632;28;20028;-73
2022/11/23 03:40:35;;;;;;;11.93;3.55;;;6.70;99.90;;;;;;5055854;28;20128;-74
2022/11/23 03:43:01;;;;;;;14.75;3.47;;;6.70;99.90;;;;;;5057379;28;20175;-73
2022/11/23 03:45:27;;;;;;;10.23;3.20;;;6.70;99.90;;;;;;5052715;28;20021;-73
2022/11/23 03:47:52;;;;;;;13.60;3.35;;;6.70;99.90;;;;;;5056467;28;20028;-73
2022/11/23 03:50:18;;;;;;;13.50;3.22;;;6.70;99.90;;;;;;5053380;28;20079;-73
2022/11/23 03:52:44;;;;;;;11.00;3.13;;;6.70;99.90;;;;;;5053158;28;20041;-74
2022/11/23 03:55:09;;;;;;;7.80;2.72;;;6.70;99.90;;;;;;5053348;28;20085;-73
2022/11/23 03:57:35;;;;;;;7.50;2.80;;;6.60;99.90;;;;;;5048445;28;20047;-73
2022/11/23 04:00:01;;;;;;;10.27;2.88;;;6.70;99.90;;;;;;5049023;28;20601;-74
2022/11/23 04:02:26;;;;;;;10.48;2.85;;;6.60;99.90;;;;;;5054323;28;20036;-73
2022/11/23 04:04:52;;;;;;;9.45;3.33;;;6.60;99.90;;;;;;5056305;28;20130;-74
2022/11/23 04:07:18;;;;;;;11.40;2.80;;;6.70;99.90;;;;;;5049878;28;20041;-73
2022/11/23 04:09:43;;;;;;;9.77;3.05;;;6.60;99.90;;;;;;5050231;28;20036;-74
2022/11/23 04:12:09;;;;;;;8.35;2.95;;;6.60;99.90;;;;;;5048307;28;20152;-73
2022/11/23 04:14:35;;;;;;;11.25;3.05;;;6.60;99.90;;;;;;5054351;28;20077;-73
2022/11/23 04:17:01;;;;;;;14.38;3.05;;;6.60;99.90;;;;;;5056655;28;20016;-73
2022/11/23 04:19:27;;;;;;;13.68;3.28;;;6.60;99.90;;;;;;5052176;28;20717;-73
2022/11/23 04:21:53;;;;;;;15.38;3.03;;;6.60;99.90;;;;;;5046679;28;20565;-73
2022/11/23 04:24:18;;;;;;;7.35;2.78;;;6.50;99.90;;;;;;5055343;28;20036;-74
2022/11/23 04:26:44;;;;;;;13.93;3.30;;;6.60;99.90;;;;;;5053872;28;20033;-73
2022/11/23 04:29:09;;;;;;;13.43;3.00;;;6.60;99.90;;;;;;5054298;28;20518;-74
2022/11/23 04:31:35;;;;;;;8.50;2.67;;;6.60;99.90;;;;;;5036998;28;20064;-73
2022/11/23 04:34:01;;;;;;;10.27;2.90;;;6.60;99.90;;;;;;5023052;28;20022;-73
2022/11/23 04:36:26;;;;;;;14.20;5.00;;;6.60;99.90;;;;;;5029856;28;20027;-73
2022/11/23 04:38:53;;;;;;;11.50;3.70;;;6.60;99.90;;;;;;5032354;28;20048;-73
2022/11/23 04:41:18;;;;;;;9.07;3.47;;;6.50;99.90;;;;;;5029235;28;20049;-73
2022/11/23 04:43:46;;;;;;;13.05;3.90;;;6.60;99.90;;;;;;5036095;28;20033;-73
2022/11/23 04:46:12;;;;;;;9.30;2.85;;;6.60;99.90;;;;;;5036467;28;20024;-74
2022/11/23 04:48:38;;;;;;;9.57;3.75;;;6.50;99.90;;;;;;5038642;28;20037;-73
2022/11/23 04:51:03;;;;;;;9.00;2.97;;;6.50;99.90;;;;;;5039348;28;20028;-73
2022/11/23 04:53:29;;;;;;;8.27;2.95;;;6.60;99.90;;;;;;5032557;28;20068;-73
2022/11/23 04:55:55;;;;;;;10.88;3.22;;;6.60;99.90;;;;;;5034124;28;20121;-73
2022/11/23 04:58:21;;;;;;;8.38;3.20;;;6.60;99.90;;;;;;5034678;28;20101;-73
2022/11/23 05:00:46;;;;;;;9.25;3.20;;;6.60;99.90;;;;;;5040431;28;20037;-74
2022/11/23 05:03:12;;;;;;;13.68;3.88;;;6.60;99.90;;;;;;5028678;28;20029;-73
2022/11/23 05:05:38;;;;;;;9.80;3.22;;;6.60;99.90;;;;;;5034260;28;20059;-73
2022/11/23 05:08:05;;;;;;;11.23;3.42;;;6.60;99.90;;;;;;5026345;28;20025;-74
2022/11/23 05:10:30;;;;;;;11.57;3.38;;;6.60;99.90;;;;;;5011965;28;20029;-74
2022/11/23 05:12:56;;;;;;;9.88;3.25;;;6.60;99.90;;;;;;5015341;28;20551;-74
2022/11/23 05:15:22;;;;;;;12.80;3.35;;;6.60;99.90;;;;;;5022797;28;20040;-73
2022/11/23 05:17:47;;;;;;;12.73;3.35;;;6.70;99.90;;;;;;5023605;28;20036;-74
2022/11/23 05:20:13;;;;;;;11.82;3.40;;;6.60;99.90;;;;;;5028375;28;20033;-73
2022/11/23 05:22:39;;;;;;;10.85;3.47;;;6.60;99.90;;;;;;5025000;28;20459;-74
2022/11/23 05:25:05;;;;;;;11.45;3.75;;;6.60;99.90;;;;;;5027485;28;20052;-74
2022/11/23 05:27:30;;;;;;;9.00;2.88;;;6.60;99.90;;;;;;5028912;28;20044;-74
2022/11/23 05:29:56;;;;;;;10.38;3.42;;;6.60;99.90;;;;;;5028807;28;20490;-74
2022/11/23 05:32:22;;;;;;;13.60;3.75;;;6.60;99.90;;;;;;5045933;28;20064;-73
2022/11/23 05:34:47;;;;;;;10.18;3.50;;;6.60;99.90;;;;;;5045219;28;20035;-74
2022/11/23 05:37:13;;;;;;;9.00;3.00;;;6.60;99.90;;;;;;5043007;28;20024;-74
2022/11/23 05:39:38;;;;;;;9.45;3.42;;;6.60;99.90;;;;;;5051414;28;20024;-74
2022/11/23 05:42:04;;;;;;;11.88;3.40;;;6.60;99.90;;;;;;5045006;28;20028;-74
2022/11/23 05:44:30;;;;;;;9.35;3.10;;;6.60;99.90;;;;;;5043749;28;20017;-75
2022/11/23 05:46:56;;;;;;;10.15;3.80;;;6.60;99.90;;;;;;5042128;28;20021;-73
2022/11/23 05:49:21;;;;;;;19.58;3.33;;;6.60;99.90;;;;;;5053032;28;20028;-74
2022/11/23 05:51:47;;;;;;;10.85;3.25;;;6.60;99.90;;;;;;5046181;28;20054;-74
2022/11/23 05:54:12;;;;;;;9.45;3.80;;;6.60;99.90;;;;;;5036799;28;20416;-73
2022/11/23 05:56:38;;;;;;;9.73;3.70;;;6.60;99.90;;;;;;5042101;28;20495;-73
2022/11/23 05:59:04;;;;;;;10.73;3.50;;;6.60;99.90;;;;;;5047951;28;20028;-73
2022/11/23 06:01:30;;;;;;;11.02;3.30;;;6.60;99.90;;;;;;5056031;28;20029;-73
2022/11/23 06:03:56;;;;;;;10.77;3.10;;;6.60;99.90;;;;;;5045748;28;20100;-73
2022/11/23 06:06:22;;;;;;;7.95;3.28;;;6.60;99.90;;;;;;5049495;28;20075;-73
2022/11/23 06:08:47;;;;;;;11.57;3.58;;;6.60;99.90;;;;;;5042703;28;20025;-73
2022/11/23 06:11:13;;;;;;;9.15;3.55;;;6.60;99.90;;;;;;5057041;28;20583;-74
2022/11/23 06:13:38;;;;;;;8.98;3.35;;;6.70;99.90;;;;;;5055940;28;20163;-73
2022/11/23 06:16:04;;;;;;;9.95;3.45;;;6.60;99.90;;;;;;5053833;28;20480;-75
2022/11/23 06:18:30;;;;;;;13.38;3.65;;;6.70;99.90;;;;;;5042754;28;20082;-74
2022/11/23 06:21:00;;;;;;;15.07;3.38;;;6.80;99.90;;;;;;5038162;28;20041;-73
2022/11/23 06:23:26;;;;;;;14.45;4.00;;;6.80;99.90;;;;;;5034311;28;20025;-74
2022/11/23 06:25:52;;;;;;;12.68;3.70;;;6.80;99.90;;;;;;5045683;28;20159;-73
2022/11/23 06:28:17;;;;;;;11.23;3.80;;;6.80;99.90;;;;;;5061381;28;20122;-74
2022/11/23 06:30:43;;;;;;;11.52;3.40;;;6.80;99.90;;;;;;5054874;28;20147;-74
2022/11/23 06:33:09;;;;;;;11.07;3.40;;;6.90;99.90;;;;;;5055241;28;20033;-74
2022/11/23 06:35:34;;;;;;;14.98;3.97;;;6.80;99.90;;;;;;5051740;28;20029;-74
2022/11/23 06:38:00;;;;;;;14.02;4.07;;;6.80;99.90;;;;;;5053260;28;20032;-74
2022/11/23 06:40:26;;;;;;;9.55;3.72;;;6.80;99.90;;;;;;5051368;28;20032;-74
2022/11/23 06:42:57;;;;;;;17.13;4.80;;;6.80;99.90;;;;;;5054251;28;20102;-74
2022/11/23 06:45:23;;;;;;;13.65;4.25;;;6.70;99.90;;;;;;5049770;28;20606;-74
2022/11/23 06:47:48;;;;;;;14.88;4.28;;;6.70;99.90;;;;;;5048462;28;20060;-74
2022/11/23 06:50:14;;;;;;;15.70;4.03;;;6.70;99.90;;;;;;5056169;28;20035;-74
2022/11/23 06:52:40;;;;;;;13.15;3.88;;;6.70;99.90;;;;;;5049879;28;20062;-74
2022/11/23 06:55:06;;;;;;;11.90;4.00;;;6.70;99.90;;;;;;5059873;28;20493;-74
2022/11/23 06:57:32;;;;;;;11.63;4.70;;;6.70;99.90;;;;;;5060036;28;20067;-74
2022/11/23 06:59:58;;;;;;;11.45;3.80;;;6.70;99.90;;;;;;5053560;28;20378;-74
2022/11/23 07:02:23;;;;;;;12.95;4.18;;;6.80;99.90;;;;;;5051660;28;20507;-74
2022/11/23 07:04:51;;;;;;;13.00;4.20;;;6.80;99.90;;;;;;5054680;28;20504;-74
2022/11/23 07:07:17;;;;;;;12.50;4.72;;;6.70;99.90;;;;;;5042763;28;20032;-73
2022/11/23 07:09:42;;;;;;;18.88;6.90;;;6.70;99.90;;;;;;5051045;28;20385;-73
2022/11/23 07:12:08;;;;;;;17.42;4.97;;;6.70;99.90;;;;;;5055261;28;20140;-73
2022/11/23 07:14:34;;;;;;;15.57;4.45;;;6.70;99.90;;;;;;5051193;28;20029;-73
2022/11/23 07:16:59;;;;;;;14.25;4.10;;;6.70;99.90;;;;;;5051626;28;20036;-73
2022/11/23 07:19:25;;;;;;;11.93;3.95;;;6.70;99.90;;;;;;5059484;28;20059;-73
2022/11/23 07:21:51;;;;;;;14.35;4.78;;;6.70;99.90;;;;;;5052302;28;20067;-73
2022/11/23 07:24:17;;;;;;;14.85;4.85;;;6.70;99.90;;;;;;5054628;28;20527;-73
2022/11/23 07:26:43;;;;;;;14.43;6.00;;;6.70;99.90;;;;;;5053999;28;20028;-73
2022/11/23 07:29:09;;;;;;;40.13;14.50;;;6.80;99.90;;;;;;5054020;28;20028;-73
2022/11/23 07:31:35;;;;;;;21.45;8.57;;;6.80;99.90;;;;;;5052318;28;20045;-73
2022/11/23 07:34:00;;;;;;;22.73;7.65;;;6.80;99.90;;;;;;5045137;28;20017;-73
2022/11/23 07:36:26;;;;;;;13.02;4.47;;;6.80;99.90;;;;;;5050282;28;20507;-73
2022/11/23 07:38:52;;;;;;;16.67;4.57;;;6.80;99.90;;;;;;5045482;28;20055;-73
2022/11/23 07:41:17;;;;;;;13.38;4.13;;;6.80;99.90;;;;;;5048923;28;20021;-73
2022/11/23 07:43:43;;;;;;;13.23;4.00;;;6.80;99.90;;;;;;5053736;28;20024;-73
2022/11/23 07:46:08;;;;;;;11.32;4.30;;;6.80;99.90;;;;;;5052372;28;20620;-73
2022/11/23 07:48:34;;;;;;;10.52;4.35;;;6.80;99.90;;;;;;5049821;28;20028;-73
2022/11/23 07:50:59;;;;;;;12.95;4.18;;;6.90;99.90;;;;;;5052135;28;20044;-73
2022/11/23 07:53:26;;;;;;;15.85;5.00;;;6.90;99.90;;;;;;5046661;28;20059;-73
2022/11/23 07:55:56;;;;;;;16.75;4.63;;;6.90;99.90;;;;;;5051106;28;20036;-73
2022/11/23 07:58:22;;;;;;;17.15;4.13;;;6.90;99.90;;;;;;5058922;28;20392;-73
2022/11/23 08:00:47;;;;;;;16.33;3.83;;;7.00;99.90;;;;;;5035791;28;20033;-73
2022/11/23 08:03:13;;;;;;;12.57;4.63;;;7.00;99.90;;;;;;5053363;28;20028;-73
2022/11/23 08:05:39;;;;;;;11.10;4.40;;;7.10;99.90;;;;;;5050013;28;22080;-74
2022/11/23 08:08:05;;;;;;;14.57;4.75;;;7.10;99.90;;;;;;5048372;28;20831;-73
2022/11/23 08:10:31;;;;;;;12.40;4.35;;;7.20;99.90;;;;;;5054667;28;20453;-73
2022/11/23 08:13:02;;;;;;;28.55;12.63;;;7.20;99.90;;;;;;5057445;28;20037;-73
2022/11/23 08:15:28;;;;;;;18.42;7.53;;;7.20;99.90;;;;;;5045892;28;20052;-73
2022/11/23 08:18:01;;;;;;;17.60;7.07;;;7.20;99.90;;;;;;5056489;28;20028;-73
2022/11/23 08:20:27;;;;;;;;;;;7.20;99.90;;;;;;5045235;28;20497;-73
2022/11/23 08:22:55;;;;;;;17.83;6.32;;;7.20;99.90;;;;;;5048082;28;20249;-73
2022/11/23 08:25:22;;;;;;;19.63;5.55;;;7.20;99.90;;;;;;5048893;28;20083;-73
2022/11/23 08:28:01;;;;;;;18.15;5.82;;;7.20;99.90;;;;;;5056818;28;20067;-73
2022/11/23 08:30:28;;;;;;;15.60;5.57;;;7.20;99.90;;;;;;5050944;28;20016;-73
2022/11/23 08:32:54;;;;;;;24.35;7.40;;;7.30;99.90;;;;;;5054632;28;20105;-73
2022/11/23 08:35:20;;;;;;;26.45;10.25;;;7.30;99.90;;;;;;5049516;28;20741;-73
2022/11/23 08:37:46;;;;;;;39.30;13.40;;;7.30;99.90;;;;;;5058899;28;20147;-73
2022/11/23 08:40:12;;;;;;;34.65;13.73;;;7.30;99.90;;;;;;5052706;28;20602;-73
2022/11/23 08:42:38;;;;;;;16.95;6.10;;;7.30;99.90;;;;;;5043639;28;20025;-73
2022/11/23 08:45:04;;;;;;;16.15;5.32;;;7.40;99.90;;;;;;5049394;28;20029;-72
2022/11/23 08:47:33;;;;;;;11.85;5.22;;;7.40;99.90;;;;;;5055304;28;20956;-73
2022/11/23 08:49:59;;;;;;;15.50;4.97;;;7.40;99.90;;;;;;5050086;28;20031;-73
2022/11/23 08:52:25;;;;;;;10.57;4.05;;;7.40;99.90;;;;;;5047666;28;20384;-73
2022/11/23 08:54:51;;;;;;;20.08;5.72;;;7.50;99.90;;;;;;5051929;28;20048;-74
2022/11/23 08:57:17;;;;;;;14.05;4.15;;;7.50;99.90;;;;;;5051671;28;20025;-74
2022/11/23 08:59:42;;;;;;;13.45;4.68;;;7.60;99.90;;;;;;5054428;28;20028;-74
2022/11/23 09:02:12;;;;;;;15.93;5.95;;;7.60;99.90;;;;;;5049367;28;20028;-73
2022/11/23 09:04:39;;;;;;;17.17;6.72;;;7.60;99.90;;;;;;5047378;28;20016;-73
2022/11/23 09:07:05;;;;;;;16.73;6.00;;;7.60;99.90;;;;;;5050910;28;20024;-73
2022/11/23 09:09:31;;;;;;;20.88;7.20;;;7.60;99.90;;;;;;5045209;28;20036;-73
2022/11/23 09:11:56;;;;;;;17.80;5.25;;;7.70;99.90;;;;;;5049530;28;20385;-73
2022/11/23 09:14:22;;;;;;;14.27;4.45;;;7.70;99.90;;;;;;5047075;28;20033;-73
2022/11/23 09:16:48;;;;;;;14.85;5.95;;;7.70;99.90;;;;;;5049467;28;20348;-73
2022/11/23 09:19:14;;;;;;;17.73;6.28;;;7.80;99.90;;;;;;5058780;28;20089;-74
2022/11/23 09:21:41;;;;;;;17.15;5.80;;;7.80;99.90;;;;;;5047166;28;20029;-73
2022/11/23 09:24:11;;;;;;;20.70;6.03;;;7.90;99.90;;;;;;5049849;28;20059;-73
2022/11/23 09:26:37;;;;;;;18.35;5.05;;;7.90;99.90;;;;;;5058763;28;20066;-73
2022/11/23 09:29:04;;;;;;;11.77;3.92;;;7.90;99.90;;;;;;5044657;28;20481;-73
2022/11/23 09:31:30;;;;;;;13.98;4.88;;;7.90;99.90;;;;;;5048448;28;20504;-73
2022/11/23 09:33:55;;;;;;;16.58;4.47;;;7.90;99.90;;;;;;5045718;28;20040;-73
2022/11/23 09:36:21;;;;;;;14.43;4.97;;;7.90;99.90;;;;;;5054725;28;20032;-73
2022/11/23 09:38:48;;;;;;;15.82;4.25;;;7.90;99.90;;;;;;5053775;28;20647;-73
2022/11/23 09:41:41;;;;;;;13.98;4.65;;;7.90;99.90;;;;;;5057711;28;20040;-73
2022/11/23 09:44:57;;;;;;;13.82;3.97;;;7.90;99.90;;;;;;5045233;28;20447;-73
2022/11/23 09:47:28;;;;;;;13.30;3.53;;;7.90;99.90;;;;;;4978116;28;20045;-73
2022/11/23 09:50:05;;;;;;;15.70;3.78;;;7.90;99.90;;;;;;4981386;28;20026;-73
2022/11/23 09:52:32;;;;;;;15.15;3.50;;;7.90;99.90;;;;;;5017455;28;20536;-73
2022/11/23 09:55:05;;;;;;;14.40;3.58;;;8.00;99.90;;;;;;5044681;28;20060;-73
2022/11/23 09:57:34;;;;;;;19.13;4.10;;;8.00;99.90;;;;;;5046243;28;20494;-73
2022/11/23 10:00:05;;;;;;;13.82;3.45;;;8.00;99.90;;;;;;5050956;28;20508;-72
2022/11/23 10:02:38;;;;;;;14.07;3.85;;;8.00;99.90;;;;;;5056899;28;20484;-73
2022/11/23 10:05:04;;;;;;;10.67;3.03;;;8.00;99.90;;;;;;5058879;28;20040;-73
2022/11/23 10:07:59;;;;;;;15.18;3.58;;;8.00;99.90;;;;;;5054131;28;20056;-73
2022/11/23 10:10:25;;;;;;;13.32;3.38;;;8.10;99.90;;;;;;5052516;28;20025;-73
2022/11/23 10:13:12;;;;;;;8.35;2.88;;;8.10;99.90;;;;;;5048092;28;20025;-73
2022/11/23 10:16:08;;;;;;;12.80;3.20;;;8.20;99.90;;;;;;5052005;28;20037;-73
2022/11/23 10:18:54;;;;;;;16.17;3.28;;;8.20;99.90;;;;;;5044545;28;20389;-73
2022/11/23 10:21:29;;;;;;;15.68;5.32;;;8.30;99.90;;;;;;5039961;28;20431;-73
2022/11/23 10:24:06;;;;;;;12.10;4.30;;;8.30;99.90;;;;;;5048104;28;20036;-73
2022/11/23 10:26:38;;;;;;;16.15;3.97;;;8.40;99.90;;;;;;5055914;28;20063;-73
2022/11/23 10:29:18;;;;;;;13.10;3.25;;;8.40;99.90;;;;;;5058214;28;20120;-73
2022/11/23 10:31:48;;;;;;;15.65;4.05;;;8.40;99.90;;;;;;5050316;28;20048;-73
2022/11/23 10:34:18;;;;;;;14.10;3.35;;;8.40;99.90;;;;;;5044539;28;20029;-73
2022/11/23 10:36:43;;;;;;;14.38;2.90;;;8.50;99.90;;;;;;5050639;28;20028;-73
2022/11/23 10:39:25;;;;;;;13.18;3.42;;;8.50;99.90;;;;;;5056019;28;20024;-73
2022/11/23 10:41:52;;;;;;;14.60;3.40;;;8.60;99.90;;;;;;5051331;28;20056;-73
2022/11/23 10:44:18;;;;;;;11.18;3.38;;;8.60;99.90;;;;;;5045649;28;20385;-73
2022/11/23 10:46:44;;;;;;;16.42;3.42;;;8.70;99.90;;;;;;5048602;28;20036;-73
2022/11/23 10:49:15;;;;;;;12.18;3.38;;;8.70;99.90;;;;;;5061700;28;20028;-73
2022/11/23 10:52:08;;;;;;;11.82;3.22;;;8.70;99.90;;;;;;5058825;28;20087;-73
2022/11/23 10:54:48;;;;;;;14.38;3.10;;;8.70;99.90;;;;;;5051967;28;20033;-73
2022/11/23 10:57:21;;;;;;;12.63;3.25;;;8.70;99.90;;;;;;5044581;28;20080;-73
2022/11/23 11:00:18;;;;;;;14.73;3.38;;;8.70;99.90;;;;;;5043376;28;20036;-73
2022/11/23 11:02:56;;;;;;;12.88;3.03;;;8.80;99.90;;;;;;5035983;28;20047;-72
2022/11/23 11:05:48;;;;;;;14.50;2.97;;;8.90;99.90;;;;;;5062358;28;20389;-73
2022/11/23 11:08:17;;;;;;;11.40;3.28;;;9.10;99.90;;;;;;5064734;28;20024;-73
2022/11/23 11:10:49;;;;;;;12.00;2.63;;;9.20;99.90;;;;;;5051898;28;20025;-73
2022/11/23 11:13:38;;;;;;;12.50;3.00;;;9.20;99.90;;;;;;5048874;28;20388;-73
2022/11/23 11:16:16;;;;;;;11.65;2.58;;;9.30;99.90;;;;;;5055869;28;20016;-73
2022/11/23 11:18:42;;;;;;;11.07;2.80;;;;;;;;;;5048878;28;20040;-73
2022/11/23 11:21:32;;;;;;;9.93;2.50;;;9.30;99.90;;;;;;5062399;28;20032;-73
2022/11/23 11:24:03;;;;;;;11.60;2.95;;;9.30;99.90;;;;;;5048240;28;20093;-74
2022/11/23 11:26:32;;;;;;;12.63;2.78;;;9.30;99.90;;;;;;5062907;28;20036;-75
2022/11/23 11:29:01;;;;;;;11.43;2.40;;;9.40;99.90;;;;;;5057111;28;20499;-75
2022/11/23 11:31:49;;;;;;;11.30;2.72;;;9.60;99.90;;;;;;5049888;28;20133;-75
2022/11/23 11:34:30;;;;;;;12.23;2.53;;;9.70;99.90;;;;;;5055504;28;20369;-74
2022/11/23 11:37:30;;;;;;;11.43;2.60;;;9.90;99.90;;;;;;5048161;28;20025;-74
2022/11/23 11:40:22;;;;;;;8.45;2.50;;;9.90;99.90;;;;;;5058382;28;20508;-75
2022/11/23 11:42:54;;;;;;;13.63;3.10;;;9.90;99.90;;;;;;5057590;28;20028;-75
2022/11/23 11:45:22;;;;;;;9.15;2.50;;;10.10;99.90;;;;;;5065506;28;20393;-75
2022/11/23 11:48:11;;;;;;;7.55;2.33;;;10.20;99.90;;;;;;5049809;28;20021;-74
2022/11/23 11:50:52;;;;;;;10.70;2.80;;;10.20;99.90;;;;;;5046705;28;20033;-74
2022/11/23 11:53:23;;;;;;;9.88;2.72;;;10.10;99.90;;;;;;5064818;28;20507;-75
2022/11/23 11:56:11;;;;;;;11.43;3.58;;;10.10;99.90;;;;;;5051853;28;20043;-74
2022/11/23 11:58:38;;;;;;;18.20;6.55;;;10.00;99.90;;;;;;5048261;28;20017;-75
2022/11/23 12:01:24;;;;;;;14.73;4.07;;;9.90;99.90;;;;;;5047400;28;20029;-74
2022/11/23 12:04:00;;;;;;;17.23;6.32;;;9.80;99.90;;;;;;5043178;28;20036;-74
2022/11/23 12:07:04;;;;;;;15.80;6.22;;;9.70;99.90;;;;;;5053462;28;20036;-73
2022/11/23 12:09:34;;;;;;;31.98;13.80;;;9.70;99.90;;;;;;4993382;28;20481;-73
2022/11/23 12:12:00;;;;;;;12.25;4.55;;;9.60;99.90;;;;;;5060064;28;20037;-73
2022/11/23 12:14:25;;;;;;;18.77;4.40;;;9.50;99.90;;;;;;5059651;28;20534;-74
2022/11/23 12:17:16;;;;;;;11.80;4.50;;;9.40;99.90;;;;;;5066839;28;20129;-74
2022/11/23 12:20:05;;;;;;;14.35;3.75;;;9.40;99.90;;;;;;5065008;28;20031;-74
2022/11/23 12:22:58;;;;;;;12.73;3.25;;;9.40;99.90;;;;;;5045815;28;20041;-74
2022/11/23 12:25:27;;;;;;;12.25;3.85;;;9.50;99.90;;;;;;5046588;28;20036;-74
2022/11/23 12:28:08;;;;;;;12.20;3.42;;;9.70;99.90;;;;;;5046999;28;20021;-74
2022/11/23 12:31:01;;;;;;;9.68;2.60;;;9.80;99.90;;;;;;5059547;28;20056;-74
2022/11/23 12:34:20;;;;;;;8.70;2.10;;;9.90;99.90;;;;;;5044871;28;20053;-74
2022/11/23 12:37:00;;;;;;;7.55;2.20;;;9.80;99.90;;;;;;4982689;28;20388;-74
2022/11/23 12:39:29;;;;;;;13.43;2.42;;;9.80;99.90;;;;;;5052862;28;20432;-74
2022/11/23 12:42:11;;;;;;;13.00;2.47;;;9.80;99.90;;;;;;5052072;28;20098;-75
2022/11/23 12:44:48;;;;;;;14.50;2.22;;;9.80;99.90;;;;;;5056574;28;20034;-73
2022/11/23 12:47:44;;;;;;;17.65;2.30;;;9.70;99.90;;;;;;5058986;28;20043;-73
2022/11/23 12:50:42;;;;;;;14.30;2.45;;;9.70;99.90;;;;;;5050872;28;22401;-72
2022/11/23 12:53:25;;;;;;;9.98;3.13;;;9.60;99.90;;;;;;5039892;28;20037;-73
2022/11/23 12:56:09;;;;;;;10.07;2.42;;;9.70;99.90;;;;;;5043770;28;20036;-73
2022/11/23 12:58:37;;;;;;;12.80;3.20;;;9.80;99.90;;;;;;5046679;28;20037;-72
2022/11/23 13:01:15;;;;;;;10.82;3.45;;;9.80;99.90;;;;;;5044172;28;20094;-73